This is the latest recevied weather packets stored in our database for station/object DO1YM-13. If no packets are shown the sender has not sent any weather packets the latest 10 day(s).
| Time | Temp. | Humidity | Pressure | Rain* | Wind** | Luminosity | Snow |
|---|---|---|---|---|---|---|---|
| 1787782247 | 17.22° C | 63% | 1016.3 hPa | 0 mm | - | 0 W/m² | - |
| 1787781947 | 17.22° C | 62% | 1015.9 hPa | 0 mm | - | 0 W/m² | - |
| 1787781647 | 17.22° C | 62% | 1016.3 hPa | 0 mm | - | 0 W/m² | - |
| 1787781347 | 17.22° C | 62% | 1016.3 hPa | 0 mm | - | 0 W/m² | - |
| 1787781048 | 17.78° C | 61% | 1016.3 hPa | 0 mm | - | 0 W/m² | - |
| 1787780747 | 17.78° C | 61% | 1016.6 hPa | 0 mm | - | 0 W/m² | - |
| 1787780447 | 17.78° C | 61% | 1016.6 hPa | 0 mm | - | 0 W/m² | - |
| 1787780148 | 17.78° C | 60% | 1016.6 hPa | 0 mm | - | 0 W/m² | - |
| 1787779847 | 17.78° C | 61% | 1016.6 hPa | 0 mm | - | 0 W/m² | - |
| 1787779548 | 17.78° C | 60% | 1016.6 hPa | 0 mm | - | 0 W/m² | - |
| 1787779249 | 17.78° C | 59% | 1015.9 hPa | 0 mm | - | 0 W/m² | - |
| 1787778947 | 17.78° C | 59% | 1016.3 hPa | 0 mm | - | 0 W/m² | - |
| 1787778648 | 18.33° C | 57% | 1016.3 hPa | 0 mm | - | 0 W/m² | - |
| 1787778347 | 17.78° C | 59% | 1016.3 hPa | 0 mm | - | 0 W/m² | - |
| 1787778050 | 17.78° C | 59% | 1016.3 hPa | 0 mm | - | 0 W/m² | - |
| 1787777747 | 17.78° C | 58% | 1016.3 hPa | 0 mm | - | 0 W/m² | - |
| 1787777447 | 17.78° C | 58% | 1016.6 hPa | 0 mm | - | 0 W/m² | - |
| 1787777148 | 18.33° C | 57% | 1016.6 hPa | 0 mm | - | 0 W/m² | - |
| 1787776848 | 18.33° C | 57% | 1016.3 hPa | 0 mm | - | 0 W/m² | - |
| 1787776547 | 18.33° C | 56% | 1016.3 hPa | 0 mm | - | 0 W/m² | - |
| 1787776248 | 35.56° C | 21% | 1016.3 hPa | 0 mm | - | 0 W/m² | - |
| 1787775948 | 17.78° C | 58% | 1016.3 hPa | 0 mm | - | 0 W/m² | - |
| 1787775649 | 24.44° C | 39% | 1016.3 hPa | 0 mm | - | 0 W/m² | - |
| 1787775347 | 17.22° C | 65% | 1016.6 hPa | 0 mm | - | 0 W/m² | - |
| 1787775049 | 17.22° C | 65% | 1016.3 hPa | 0 mm | - | 0 W/m² | - |
* Rain since midnight (hover to see other rain measurements)
** Current wind speed in m/s (hover to see current wind gust speed)